createdAt,value
2023-08-29T00:00:23.546Z,61.43
2023-08-29T00:02:50.914Z,62.02
2023-08-29T00:05:17.371Z,61.70
2023-08-29T00:07:43.982Z,61.73
2023-08-29T00:10:11.277Z,60.74
2023-08-29T00:12:37.768Z,60.92
2023-08-29T00:15:04.235Z,60.88
2023-08-29T00:17:30.747Z,62.12
2023-08-29T00:19:57.305Z,62.89
2023-08-29T00:22:23.732Z,62.57
2023-08-29T00:24:50.153Z,62.13
2023-08-29T00:30:00.609Z,61.83
2023-08-29T00:32:29.852Z,62.41
2023-08-29T00:34:59.216Z,61.94
2023-08-29T00:37:27.560Z,61.76
2023-08-29T00:39:57.530Z,62.21
2023-08-29T00:45:11.701Z,62.48
2023-08-29T00:47:39.039Z,62.26
2023-08-29T00:50:05.590Z,62.35
2023-08-29T00:52:32.081Z,62.79
2023-08-29T00:55:00.380Z,64.30
2023-08-29T01:00:11.430Z,64.59
2023-08-29T01:02:37.962Z,65.70
2023-08-29T01:05:04.425Z,64.29
2023-08-29T01:07:30.911Z,64.71
2023-08-29T01:09:57.334Z,63.74
2023-08-29T01:15:09.487Z,66.85
2023-08-29T01:17:35.978Z,65.28
2023-08-29T01:20:02.538Z,68.18
2023-08-29T01:22:30.883Z,68.76
2023-08-29T01:25:00.856Z,68.77
2023-08-29T01:30:11.899Z,68.84
2023-08-29T01:32:38.413Z,69.44
2023-08-29T01:35:06.736Z,68.87
2023-08-29T01:37:33.201Z,69.08
2023-08-29T01:39:59.711Z,69.17
2023-08-29T01:45:12.878Z,67.95
2023-08-29T01:47:40.251Z,67.98
2023-08-29T01:50:07.583Z,67.75
2023-08-29T01:52:33.991Z,68.48
2023-08-29T01:55:00.378Z,66.75
2023-08-29T02:00:10.483Z,66.92
2023-08-29T02:02:36.892Z,67.85
2023-08-29T02:05:03.345Z,68.66
2023-08-29T02:07:29.755Z,68.60
2023-08-29T02:09:56.178Z,68.86
2023-08-29T02:15:06.294Z,68.63
2023-08-29T02:17:33.620Z,68.43
2023-08-29T02:20:00.096Z,68.90
2023-08-29T02:22:26.563Z,67.64
2023-08-29T02:24:52.998Z,68.58
2023-08-29T02:30:04.365Z,66.22
2023-08-29T02:32:30.794Z,65.94
2023-08-29T02:34:57.238Z,67.24
2023-08-29T02:37:23.662Z,67.51
2023-08-29T02:39:50.103Z,66.88
2023-08-29T02:45:00.406Z,67.38
2023-08-29T02:47:26.836Z,68.20
2023-08-29T02:49:53.293Z,67.28
2023-08-29T02:52:19.721Z,66.77
2023-08-29T02:54:46.111Z,65.80
2023-08-29T02:59:57.343Z,68.69
2023-08-29T03:02:23.741Z,67.02
2023-08-29T03:04:50.182Z,67.22
2023-08-29T03:07:16.588Z,66.93
2023-08-29T03:09:43.852Z,66.41
2023-08-29T03:12:11.280Z,66.44
2023-08-29T03:14:37.673Z,66.47
2023-08-29T03:17:04.056Z,66.82
2023-08-29T03:19:30.450Z,66.44
2023-08-29T03:21:56.848Z,66.96
2023-08-29T03:24:23.242Z,66.71
2023-08-29T03:26:49.663Z,67.73
2023-08-29T03:29:16.063Z,69.44
2023-08-29T03:31:42.424Z,69.10
2023-08-29T03:34:08.859Z,68.63
2023-08-29T03:36:35.265Z,68.89
2023-08-29T03:39:01.672Z,69.80
2023-08-29T03:41:28.079Z,68.65
2023-08-29T03:43:54.486Z,68.54
2023-08-29T03:46:21.786Z,67.02
2023-08-29T03:48:48.238Z,66.68
2023-08-29T03:51:15.523Z,68.93
2023-08-29T03:53:41.917Z,68.33
2023-08-29T03:56:08.308Z,67.82
2023-08-29T03:58:34.705Z,67.05
2023-08-29T04:01:01.268Z,66.23
2023-08-29T04:03:28.029Z,67.66
2023-08-29T04:05:54.649Z,66.88
2023-08-29T04:08:21.940Z,66.92
2023-08-29T04:10:48.351Z,67.69
2023-08-29T04:13:15.640Z,67.32
2023-08-29T04:18:25.837Z,66.61
2023-08-29T04:20:52.252Z,66.68
2023-08-29T04:23:19.571Z,67.01
2023-08-29T04:25:45.982Z,69.23
2023-08-29T04:28:12.386Z,68.65
2023-08-29T04:33:32.558Z,69.58
2023-08-29T04:35:58.979Z,69.91
2023-08-29T04:38:26.240Z,71.40
2023-08-29T04:40:53.499Z,70.07
2023-08-29T04:43:19.944Z,69.80
2023-08-29T04:48:30.450Z,69.53
2023-08-29T04:50:56.876Z,68.99
2023-08-29T04:53:24.144Z,69.75
2023-08-29T04:55:50.572Z,68.50
2023-08-29T04:58:17.853Z,68.91
2023-08-29T05:03:28.261Z,68.76
2023-08-29T05:05:54.941Z,68.96
2023-08-29T05:08:24.456Z,69.01
2023-08-29T05:10:50.873Z,69.03
2023-08-29T05:13:18.183Z,68.66
2023-08-29T05:18:28.443Z,68.38
2023-08-29T05:20:55.966Z,68.93
2023-08-29T05:23:22.800Z,68.84
2023-08-29T05:25:51.994Z,68.93
2023-08-29T05:28:19.292Z,68.85
2023-08-29T05:33:40.612Z,68.34
2023-08-29T05:36:07.285Z,67.90
2023-08-29T05:38:33.972Z,69.58
2023-08-29T05:41:00.661Z,68.78
2023-08-29T05:43:27.327Z,68.89
2023-08-29T05:48:38.402Z,68.51
2023-08-29T05:51:05.662Z,68.75
2023-08-29T05:53:32.075Z,68.28
2023-08-29T05:55:58.516Z,68.87
2023-08-29T05:58:24.968Z,68.80
2023-08-29T06:03:35.510Z,69.01
2023-08-29T06:06:03.103Z,68.60
2023-08-29T06:08:29.552Z,69.23
2023-08-29T06:10:56.113Z,68.72
2023-08-29T06:13:22.510Z,69.06
2023-08-29T06:18:33.744Z,68.98
2023-08-29T06:21:00.167Z,68.80
2023-08-29T06:23:26.627Z,68.53
2023-08-29T06:25:53.111Z,68.91
2023-08-29T06:28:20.385Z,68.98
2023-08-29T06:33:40.590Z,68.32
2023-08-29T06:36:07.077Z,68.29
2023-08-29T06:38:37.158Z,67.93
2023-08-29T06:41:03.588Z,68.25
2023-08-29T06:43:29.986Z,68.53
2023-08-29T06:48:40.565Z,68.34
2023-08-29T06:51:07.835Z,68.27
2023-08-29T06:53:34.284Z,67.45
2023-08-29T06:56:01.580Z,67.22
2023-08-29T06:58:28.055Z,67.09
2023-08-29T07:03:48.060Z,68.06
2023-08-29T07:06:15.451Z,69.05
2023-08-29T07:08:41.909Z,68.94
2023-08-29T07:11:08.331Z,69.53
2023-08-29T07:13:34.766Z,68.61
2023-08-29T07:18:45.220Z,68.04
2023-08-29T07:21:12.503Z,67.40
2023-08-29T07:23:38.976Z,67.09
2023-08-29T07:26:05.424Z,66.62
2023-08-29T07:28:31.834Z,66.79
2023-08-29T07:30:58.290Z,66.60
2023-08-29T07:33:24.763Z,67.25
2023-08-29T07:35:51.216Z,67.36
2023-08-29T07:38:18.576Z,66.65
2023-08-29T07:40:45.914Z,66.28
2023-08-29T07:43:12.304Z,67.28
2023-08-29T07:45:38.722Z,67.57
2023-08-29T07:48:05.454Z,67.83
2023-08-29T07:50:32.246Z,69.36
2023-08-29T07:52:58.713Z,68.62
2023-08-29T07:55:26.008Z,68.13
2023-08-29T07:57:53.363Z,67.90
2023-08-29T08:00:22.058Z,68.49
2023-08-29T08:02:48.497Z,69.04
2023-08-29T08:05:15.809Z,68.03
2023-08-29T08:07:42.283Z,69.34
2023-08-29T08:10:08.701Z,69.40
2023-08-29T08:12:36.029Z,69.88
2023-08-29T08:15:02.536Z,70.17
2023-08-29T08:17:29.008Z,69.40
2023-08-29T08:19:55.479Z,68.71
2023-08-29T08:22:21.927Z,69.20
2023-08-29T08:24:48.317Z,69.30
2023-08-29T08:27:15.590Z,69.51
2023-08-29T08:29:42.881Z,68.82
2023-08-29T08:32:10.305Z,70.13
2023-08-29T08:34:36.748Z,70.14
2023-08-29T08:37:04.032Z,70.05
2023-08-29T08:39:31.313Z,69.57
2023-08-29T08:41:57.724Z,69.21
2023-08-29T08:44:24.162Z,68.96
2023-08-29T08:46:51.443Z,69.97
2023-08-29T08:52:03.694Z,68.96
2023-08-29T08:54:32.118Z,68.57
2023-08-29T08:56:58.567Z,68.46
2023-08-29T08:59:25.026Z,69.31
2023-08-29T09:01:51.467Z,70.21
2023-08-29T09:07:05.269Z,70.02
2023-08-29T09:09:31.686Z,69.49
2023-08-29T09:11:58.200Z,70.37
2023-08-29T09:14:24.712Z,71.03
2023-08-29T09:16:51.259Z,70.61
2023-08-29T09:22:01.913Z,69.70
2023-08-29T09:24:28.436Z,70.16
2023-08-29T09:26:54.973Z,69.31
2023-08-29T09:29:24.997Z,69.92
2023-08-29T09:31:53.340Z,69.92
2023-08-29T09:37:03.644Z,69.58
2023-08-29T09:39:30.111Z,70.65
2023-08-29T09:41:57.430Z,69.60
2023-08-29T09:44:26.663Z,70.34
2023-08-29T09:46:53.941Z,70.64
2023-08-29T09:52:06.114Z,70.58
2023-08-29T09:54:32.750Z,70.53
2023-08-29T09:57:00.149Z,70.96
2023-08-29T09:59:27.566Z,71.12
2023-08-29T10:01:54.057Z,71.40
2023-08-29T10:07:04.553Z,71.24
2023-08-29T10:09:31.008Z,70.86
2023-08-29T10:11:58.374Z,70.39
2023-08-29T10:14:25.735Z,69.67
2023-08-29T10:16:53.132Z,69.96
2023-08-29T10:22:03.861Z,69.43
2023-08-29T10:24:31.301Z,69.41
2023-08-29T10:26:57.897Z,69.11
2023-08-29T10:29:24.382Z,68.90
2023-08-29T10:31:50.894Z,68.96
2023-08-29T10:37:02.115Z,69.10
2023-08-29T10:39:28.650Z,69.02
2023-08-29T10:41:56.079Z,68.97
2023-08-29T10:44:23.559Z,69.09
2023-08-29T10:46:50.090Z,68.61
2023-08-29T10:52:01.774Z,69.06
2023-08-29T10:54:29.218Z,68.93
2023-08-29T10:56:56.658Z,68.92
2023-08-29T10:59:24.082Z,68.77
2023-08-29T11:01:51.460Z,68.50
2023-08-29T11:07:02.828Z,68.81
2023-08-29T11:09:29.320Z,68.75
2023-08-29T11:11:55.884Z,68.50
2023-08-29T11:14:22.447Z,68.36
2023-08-29T11:16:49.056Z,68.44
2023-08-29T11:19:16.357Z,68.38
2023-08-29T11:21:45.042Z,68.22
2023-08-29T11:24:17.304Z,68.23
2023-08-29T11:26:44.086Z,68.24
2023-08-29T11:29:10.637Z,68.18
2023-08-29T11:31:37.255Z,68.07
2023-08-29T11:34:04.627Z,68.16
2023-08-29T11:36:31.154Z,68.19
2023-08-29T11:38:57.621Z,68.13
2023-08-29T11:41:35.747Z,68.30
2023-08-29T11:45:19.499Z,68.01
2023-08-29T11:46:55.052Z,67.91
2023-08-29T11:49:21.566Z,68.01
2023-08-29T11:51:48.109Z,67.91
2023-08-29T11:54:14.660Z,67.94
2023-08-29T11:56:43.036Z,68.02
2023-08-29T11:59:11.331Z,68.09
2023-08-29T12:01:38.754Z,67.79
2023-08-29T12:04:05.358Z,68.15
2023-08-29T12:06:46.665Z,67.85
2023-08-29T12:09:13.994Z,67.83
2023-08-29T12:11:40.436Z,67.89
2023-08-29T12:14:06.929Z,67.83
2023-08-29T12:16:33.484Z,68.22
2023-08-29T12:19:00.933Z,67.70
2023-08-29T12:21:28.382Z,67.89
2023-08-29T12:23:54.917Z,67.67
2023-08-29T12:26:22.223Z,67.78
2023-08-29T12:28:49.526Z,67.76
2023-08-29T12:31:17.904Z,67.89
2023-08-29T12:33:46.328Z,67.67
2023-08-29T12:36:12.898Z,68.02
2023-08-29T12:38:40.340Z,67.68
2023-08-29T12:41:07.773Z,67.75
2023-08-29T12:43:34.289Z,67.86
2023-08-29T12:46:01.667Z,67.71
2023-08-29T12:48:28.323Z,67.68
2023-08-29T12:50:54.869Z,67.58
2023-08-29T12:56:06.834Z,67.72
2023-08-29T12:58:34.025Z,67.74
2023-08-29T13:01:01.454Z,67.60
2023-08-29T13:03:28.050Z,67.86
2023-08-29T13:05:55.781Z,68.00
2023-08-29T13:08:23.247Z,68.81
2023-08-29T13:10:51.425Z,68.64
2023-08-29T13:13:18.905Z,68.72
2023-08-29T13:15:51.621Z,69.41
2023-08-29T13:18:19.393Z,68.77
2023-08-29T13:20:46.838Z,68.82
2023-08-29T13:26:08.321Z,69.02
2023-08-29T13:28:35.758Z,69.00
2023-08-29T13:31:02.322Z,68.87
2023-08-29T13:33:29.753Z,68.94
2023-08-29T13:35:56.287Z,68.67
2023-08-29T13:41:07.868Z,69.00
2023-08-29T13:43:34.385Z,68.80
2023-08-29T13:46:00.953Z,69.03
2023-08-29T13:48:27.540Z,68.75
2023-08-29T13:50:55.007Z,69.17
2023-08-29T13:56:16.643Z,69.16
2023-08-29T13:58:45.343Z,69.08
2023-08-29T14:01:12.352Z,69.25
2023-08-29T14:03:39.622Z,69.34
2023-08-29T14:06:06.345Z,69.33
2023-08-29T14:11:18.809Z,69.84
2023-08-29T14:13:46.379Z,69.67
2023-08-29T14:16:13.905Z,69.49
2023-08-29T14:18:40.505Z,69.54
2023-08-29T14:21:07.052Z,69.89
2023-08-29T14:26:28.772Z,69.31
2023-08-29T14:28:56.248Z,69.14
2023-08-29T14:31:23.813Z,69.42
2023-08-29T14:33:51.261Z,69.53
2023-08-29T14:36:17.797Z,69.67
2023-08-29T14:41:29.591Z,69.43
2023-08-29T14:43:58.146Z,69.84
2023-08-29T14:46:25.660Z,69.35
2023-08-29T14:48:52.212Z,69.09
2023-08-29T14:51:19.686Z,69.34
2023-08-29T14:56:42.484Z,69.30
2023-08-29T14:59:09.016Z,69.14
2023-08-29T15:01:35.591Z,69.00
2023-08-29T15:04:02.240Z,69.13
2023-08-29T15:06:29.680Z,69.24
2023-08-29T15:11:40.347Z,69.96
2023-08-29T15:14:07.796Z,69.71
2023-08-29T15:16:34.319Z,69.78
2023-08-29T15:19:00.860Z,69.37
2023-08-29T15:21:28.344Z,69.24
2023-08-29T15:26:39.078Z,69.49
2023-08-29T15:29:05.603Z,69.40
2023-08-29T15:31:32.163Z,69.22
2023-08-29T15:33:58.740Z,69.17
2023-08-29T15:36:26.158Z,69.07
2023-08-29T15:41:36.638Z,69.21
2023-08-29T15:44:03.194Z,69.21
2023-08-29T15:46:30.686Z,69.33
2023-08-29T15:48:58.128Z,69.53
2023-08-29T15:51:24.646Z,69.05
2023-08-29T15:56:35.214Z,69.06
2023-08-29T15:59:01.733Z,69.26
2023-08-29T16:01:28.257Z,69.48
2023-08-29T16:03:54.910Z,69.46
2023-08-29T16:06:21.515Z,69.66
2023-08-29T16:08:48.034Z,69.71
2023-08-29T16:11:15.465Z,69.88
2023-08-29T16:13:42.016Z,69.82
2023-08-29T16:16:09.468Z,69.88
2023-08-29T16:18:35.998Z,69.50
2023-08-29T16:21:03.436Z,69.99
2023-08-29T16:23:29.941Z,69.69
2023-08-29T16:25:57.417Z,69.64
2023-08-29T16:28:24.895Z,69.61
2023-08-29T16:30:51.434Z,69.71
2023-08-29T16:33:18.890Z,69.54
2023-08-29T16:35:46.389Z,69.49
2023-08-29T16:38:13.925Z,69.79
2023-08-29T16:40:40.477Z,69.91
2023-08-29T16:43:07.016Z,69.91
2023-08-29T16:45:33.633Z,69.81
2023-08-29T16:48:00.219Z,69.96
2023-08-29T16:50:26.801Z,70.03
2023-08-29T16:52:53.354Z,70.12
2023-08-29T16:55:19.879Z,70.28
2023-08-29T16:57:47.496Z,70.15
2023-08-29T17:00:14.010Z,69.92
2023-08-29T17:02:41.541Z,69.63
2023-08-29T17:05:09.034Z,70.09
2023-08-29T17:07:36.772Z,69.80
2023-08-29T17:10:04.197Z,69.63
2023-08-29T17:12:30.708Z,69.72
2023-08-29T17:14:57.223Z,69.54
2023-08-29T17:17:23.864Z,69.30
2023-08-29T17:19:51.388Z,69.17
2023-08-29T17:22:17.940Z,69.03
2023-08-29T17:24:45.411Z,69.13
2023-08-29T17:30:06.197Z,69.33
2023-08-29T17:32:32.823Z,69.95
2023-08-29T17:35:00.282Z,69.54
2023-08-29T17:37:27.744Z,69.31
2023-08-29T17:39:54.289Z,69.28
2023-08-29T17:45:07.134Z,69.07
2023-08-29T17:47:34.665Z,68.99
2023-08-29T17:50:01.292Z,69.45
2023-08-29T17:52:29.026Z,69.37
2023-08-29T17:54:56.523Z,69.50
2023-08-29T18:00:17.110Z,69.25
2023-08-29T18:02:43.824Z,69.33
2023-08-29T18:05:10.485Z,69.38
2023-08-29T18:07:37.073Z,69.01
2023-08-29T18:10:04.549Z,69.23
2023-08-29T18:15:16.056Z,69.36
2023-08-29T18:17:44.300Z,69.03
2023-08-29T18:20:11.024Z,69.14
2023-08-29T18:22:37.625Z,69.36
2023-08-29T18:25:04.215Z,69.25
2023-08-29T18:30:15.618Z,69.21
2023-08-29T18:32:43.157Z,68.97
2023-08-29T18:35:09.724Z,69.06
2023-08-29T18:37:37.196Z,69.00
2023-08-29T18:40:04.636Z,69.48
2023-08-29T18:45:15.919Z,69.27
2023-08-29T18:47:43.537Z,68.93
2023-08-29T18:50:10.979Z,69.35
2023-08-29T18:52:38.430Z,69.38
2023-08-29T18:55:04.952Z,69.70
2023-08-29T19:00:17.539Z,68.81
2023-08-29T19:02:44.164Z,69.15
2023-08-29T19:05:10.783Z,68.89
2023-08-29T19:07:37.350Z,69.01
2023-08-29T19:10:03.901Z,68.69
2023-08-29T19:15:14.442Z,69.49
2023-08-29T19:17:41.929Z,69.16
2023-08-29T19:20:08.453Z,68.95
2023-08-29T19:22:35.890Z,69.95
2023-08-29T19:25:03.350Z,69.69
2023-08-29T19:30:16.116Z,69.16
2023-08-29T19:32:43.012Z,68.95
2023-08-29T19:35:10.780Z,69.11
2023-08-29T19:37:38.469Z,69.22
2023-08-29T19:40:06.224Z,68.82
2023-08-29T19:45:18.876Z,68.58
2023-08-29T19:47:45.705Z,68.46
2023-08-29T19:50:12.520Z,68.61
2023-08-29T19:52:40.267Z,69.69
2023-08-29T19:55:07.991Z,69.45
2023-08-29T20:00:19.710Z,70.41
2023-08-29T20:02:47.574Z,69.38
2023-08-29T20:05:15.304Z,68.98
2023-08-29T20:07:42.957Z,69.31
2023-08-29T20:10:09.746Z,69.47
2023-08-29T20:15:21.583Z,69.47
2023-08-29T20:17:49.372Z,69.53
2023-08-29T20:20:15.914Z,69.96
2023-08-29T20:22:44.009Z,70.50
2023-08-29T20:25:11.623Z,69.74
2023-08-29T20:27:38.172Z,69.65
2023-08-29T20:30:04.744Z,69.62
2023-08-29T20:32:31.328Z,69.77
2023-08-29T20:34:57.871Z,69.71
2023-08-29T20:37:25.348Z,69.28
2023-08-29T20:39:52.782Z,69.10
2023-08-29T20:42:19.292Z,69.89
2023-08-29T20:44:46.738Z,69.73
2023-08-29T20:47:13.292Z,69.40
2023-08-29T20:49:39.835Z,69.11
2023-08-29T20:52:06.352Z,71.24
2023-08-29T20:54:33.881Z,73.00
2023-08-29T20:57:00.417Z,70.83
2023-08-29T20:59:26.969Z,69.56
2023-08-29T21:01:53.499Z,69.13
2023-08-29T21:04:20.964Z,69.48
2023-08-29T21:06:47.508Z,70.67
2023-08-29T21:09:14.018Z,70.74
2023-08-29T21:11:40.535Z,69.50
2023-08-29T21:14:07.088Z,69.45
2023-08-29T21:16:34.526Z,69.08
2023-08-29T21:19:01.105Z,70.22
2023-08-29T21:21:28.591Z,70.51
2023-08-29T21:23:55.135Z,71.86
2023-08-29T21:26:22.578Z,71.93
2023-08-29T21:28:50.020Z,70.99
2023-08-29T21:31:17.671Z,71.23
2023-08-29T21:33:44.253Z,70.89
2023-08-29T21:36:10.781Z,72.24
2023-08-29T21:38:37.320Z,72.41
2023-08-29T21:41:04.793Z,72.93
2023-08-29T21:43:31.321Z,72.82
2023-08-29T21:48:41.849Z,72.32
2023-08-29T21:51:08.534Z,72.57
2023-08-29T21:53:35.071Z,73.64
2023-08-29T21:56:02.502Z,73.87
2023-08-29T21:58:29.947Z,74.28
2023-08-29T22:03:51.232Z,73.84
2023-08-29T22:06:18.709Z,73.53
2023-08-29T22:08:46.152Z,73.57
2023-08-29T22:11:13.596Z,75.02
2023-08-29T22:13:40.149Z,76.63
2023-08-29T22:18:52.380Z,77.09
2023-08-29T22:21:19.907Z,77.12
2023-08-29T22:23:47.399Z,77.05
2023-08-29T22:26:15.653Z,77.21
2023-08-29T22:28:43.095Z,76.83
2023-08-29T22:34:05.590Z,77.18
2023-08-29T22:36:33.072Z,76.98
2023-08-29T22:39:00.514Z,76.31
2023-08-29T22:41:34.641Z,75.64
2023-08-29T22:44:02.459Z,75.10
2023-08-29T22:49:15.096Z,75.76
2023-08-29T22:51:41.650Z,76.01
2023-08-29T22:54:09.166Z,75.59
2023-08-29T22:56:38.131Z,77.29
2023-08-29T22:59:05.638Z,77.30
2023-08-29T23:04:17.088Z,76.74
2023-08-29T23:06:44.512Z,77.03
2023-08-29T23:09:12.010Z,77.57
2023-08-29T23:11:39.611Z,77.20
2023-08-29T23:14:07.156Z,78.35
2023-08-29T23:19:19.443Z,77.54
2023-08-29T23:21:46.060Z,77.42
2023-08-29T23:24:13.534Z,77.83
2023-08-29T23:26:40.064Z,77.30
2023-08-29T23:29:07.502Z,76.10
2023-08-29T23:34:29.711Z,75.15
2023-08-29T23:36:57.155Z,74.54
2023-08-29T23:39:23.694Z,74.47
2023-08-29T23:41:50.234Z,74.71
2023-08-29T23:44:17.708Z,74.43
2023-08-29T23:49:29.084Z,75.17
2023-08-29T23:51:56.522Z,75.59
2023-08-29T23:54:23.979Z,76.22
2023-08-29T23:56:51.423Z,75.39
2023-08-29T23:59:18.983Z,74.75
